Time;durP1;ratioP1;P1;durP2;ratioP2;P2;SDS_P1;SDS_P2;PMS_P1;PMS_P2;Temp;Humidity;BMP_temperature;BMP_pressure;BME280_temperature;BME280_humidity;BME280_pressure;Samples;Min_cycle;Max_cycle;Signal;HPM_P1;HPM_P2
2021/08/27 06:41:19;;;;;;;10.48;9.33;;;;;;;17.94;99.11;99742.55;1742446;81;21064;-38
2021/08/27 06:43:46;;;;;;;10.50;9.28;;;;;;;18.03;99.30;99740.85;1748740;80;21436;-38
2021/08/27 06:46:19;;;;;;;13.38;10.45;;;;;;;18.07;98.15;99740.67;1764251;79;20996;-39
2021/08/27 06:48:47;;;;;;;12.50;10.58;;;;;;;18.10;97.22;99746.80;1761568;79;20955;-38
2021/08/27 06:51:14;;;;;;;13.78;12.00;;;;;;;18.11;96.79;99746.72;1752836;78;21041;-34
2021/08/27 06:53:41;;;;;;;13.40;11.93;;;;;;;18.11;96.88;99744.08;1728599;81;21077;-40
2021/08/27 06:56:08;;;;;;;17.30;13.35;;;;;;;18.14;97.07;99749.70;1703706;82;21023;-40
2021/08/27 06:58:35;;;;;;;17.50;15.65;;;;;;;18.14;96.27;99759.82;1688459;82;21059;-40
2021/08/27 07:01:02;;;;;;;20.48;18.27;;;;;;;18.12;95.90;99766.11;1712728;81;21367;-39
2021/08/27 07:03:28;;;;;;;21.55;19.25;;;;;;;18.08;95.82;99766.22;1715130;81;21616;-33
2021/08/27 07:05:55;;;;;;;23.87;20.82;;;;;;;18.04;95.75;99764.63;1716948;83;21592;-33
2021/08/27 07:08:22;;;;;;;25.35;21.05;;;;;;;18.01;96.05;99762.09;1706684;83;21062;-38
2021/08/27 07:10:50;;;;;;;25.12;22.00;;;;;;;18.01;95.99;99768.70;1715558;83;20991;-32
2021/08/27 07:13:17;;;;;;;24.12;21.52;;;;;;;18.00;95.78;99767.45;1706682;83;21051;-32
2021/08/27 07:15:46;;;;;;;27.40;24.02;;;;;;;17.98;95.70;99771.95;1710876;83;21202;-32
2021/08/27 07:18:13;;;;;;;27.85;21.90;;;;;;;17.91;95.51;99771.77;1706646;83;21594;-33
2021/08/27 07:20:40;;;;;;;26.97;21.70;;;;;;;17.87;95.62;99782.09;1757817;79;21044;-33
2021/08/27 07:23:06;;;;;;;23.55;20.88;;;;;;;17.84;95.96;99788.80;1750021;81;21051;-34
2021/08/27 07:25:34;;;;;;;25.88;21.42;;;;;;;17.84;96.52;99796.27;1754524;81;20996;-38
2021/08/27 07:28:01;;;;;;;24.98;19.65;;;;;;;17.81;95.61;99804.34;1759690;79;21029;-38
2021/08/27 07:30:28;;;;;;;22.30;18.90;;;;;;;17.79;95.28;99802.20;1753828;79;21574;-38
2021/08/27 07:32:54;;;;;;;21.52;18.75;;;;;;;17.80;95.59;99802.63;1747448;81;21051;-38
2021/08/27 07:35:21;;;;;;;20.82;16.73;;;;;;;17.83;95.07;99795.87;1756768;79;21022;-38
2021/08/27 07:37:48;;;;;;;19.85;17.30;;;;;;;17.88;94.80;99796.57;1761252;79;21069;-38
2021/08/27 07:40:15;;;;;;;17.45;14.45;;;;;;;17.94;94.67;99799.45;1754074;79;20974;-32
2021/08/27 07:42:42;;;;;;;15.53;13.88;;;;;;;17.98;94.05;99801.92;1706945;81;21112;-33
2021/08/27 07:45:10;;;;;;;16.55;14.75;;;;;;;18.00;93.70;99801.39;1781048;79;21060;-32
2021/08/27 07:47:37;;;;;;;19.37;15.20;;;;;;;18.03;93.20;99805.70;1750990;79;21079;-32
2021/08/27 07:50:05;;;;;;;17.42;15.58;;;;;;;18.06;92.88;99809.09;1757135;79;21047;-38
2021/08/27 07:52:32;;;;;;;17.70;14.45;;;;;;;18.08;92.27;99807.24;1752532;79;21046;-38
2021/08/27 07:54:58;;;;;;;17.55;13.93;;;;;;;18.16;92.46;99812.73;1749671;81;21028;-32
2021/08/27 07:57:25;;;;;;;18.17;15.43;;;;;;;18.23;91.76;99826.98;1752955;79;21244;-33
2021/08/27 07:59:51;;;;;;;17.82;15.90;;;;;;;18.24;90.17;99827.38;1752637;79;20955;-33
2021/08/27 08:02:18;;;;;;;22.45;18.20;;;;;;;18.24;90.31;99826.52;1752926;79;21661;-34
2021/08/27 08:04:45;;;;;;;20.82;17.90;;;;;;;18.23;89.61;99826.13;1765717;79;21611;-33
2021/08/27 08:07:11;;;;;;;22.95;19.60;;;;;;;18.24;89.50;99823.41;1751690;79;21573;-39
2021/08/27 08:09:40;;;;;;;20.75;17.30;;;;;;;18.31;90.02;99828.00;1756663;79;20972;-33
2021/08/27 08:12:07;;;;;;;22.25;18.05;;;;;;;18.49;90.81;99829.91;1743173;79;21007;-33
2021/08/27 08:14:34;;;;;;;21.93;16.97;;;;;;;18.73;90.48;99828.56;1742174;79;21563;-33
2021/08/27 08:17:01;;;;;;;19.67;17.55;;;;;;;18.98;89.21;99827.11;1719384;81;21044;-34
2021/08/27 08:19:27;;;;;;;17.62;15.72;;;;;;;19.20;88.10;99827.07;1702312;82;20981;-32
2021/08/27 08:21:55;;;;;;;20.75;16.50;;;;;;;19.32;85.32;99826.54;1702615;81;21045;-39
2021/08/27 08:24:21;;;;;;;19.95;15.98;;;;;;;19.47;84.63;99825.85;1691169;84;21054;-39
2021/08/27 08:26:48;;;;;;;23.10;18.73;;;;;;;19.63;84.44;99824.28;1692582;82;21730;-39
2021/08/27 08:29:15;;;;;;;21.55;16.65;;;;;;;19.73;84.05;99831.38;1694222;84;21045;-39
2021/08/27 08:31:41;;;;;;;26.00;19.67;;;;;;;19.75;83.53;99827.32;1714542;81;21109;-39
2021/08/27 08:34:08;;;;;;;18.50;15.32;;;;;;;19.73;82.22;99834.50;1755212;80;21024;-38
2021/08/27 08:36:36;;;;;;;20.77;16.90;;;;;;;19.68;81.04;99833.84;1755225;79;21070;-39
2021/08/27 08:39:04;;;;;;;21.65;18.30;;;;;;;19.62;81.01;99828.34;1758498;79;21095;-34
2021/08/27 08:41:32;;;;;;;22.37;18.00;;;;;;;19.64;80.97;99826.00;1754817;79;21099;-39
2021/08/27 08:43:59;;;;;;;24.47;17.92;;;;;;;19.74;81.49;99830.91;1748255;79;21030;-39
2021/08/27 08:46:25;;;;;;;21.45;17.50;;;;;;;19.85;81.56;99830.82;1751678;79;21047;-39
2021/08/27 08:48:53;;;;;;;23.40;19.37;;;;;;;20.03;80.67;99831.77;1758780;79;21081;-39
2021/08/27 08:51:24;;;;;;;27.32;20.10;;;;;;;20.15;79.46;99839.63;1751940;80;20976;-39
2021/08/27 08:53:50;;;;;;;23.32;20.10;;;;;;;20.14;78.86;99834.79;1749781;79;21572;-39
2021/08/27 08:56:18;;;;;;;26.10;18.80;;;;;;;20.08;78.95;99832.42;1754978;79;21006;-39
2021/08/27 08:58:46;;;;;;;21.87;18.27;;;;;;;20.04;78.95;99831.30;1735710;80;21076;-33
2021/08/27 09:01:18;;;;;;;26.95;21.00;;;;;;;19.96;78.75;99837.44;1741674;79;21091;-38
2021/08/27 09:03:45;;;;;;;22.40;20.12;;;;;;;19.89;78.46;99832.88;1716361;82;21067;-38
2021/08/27 09:06:12;;;;;;;22.48;20.10;;;;;;;19.93;77.67;99837.09;1767436;79;21415;-38
2021/08/27 09:08:46;;;;;;;24.05;21.15;;;;;;;19.98;77.50;99833.77;1749675;79;21557;-38
2021/08/27 09:11:22;;;;;;;24.05;20.00;;;;;;;20.09;78.40;99831.48;1763057;79;21572;-33
2021/08/27 09:13:52;;;;;;;22.05;19.82;;;;;;;20.23;77.23;99833.95;1763824;79;21004;-33
2021/08/27 09:16:25;;;;;;;24.37;21.48;;;;;;;20.30;75.19;99828.77;1753205;80;21579;-34
2021/08/27 09:18:52;;;;;;;24.15;21.52;;;;;;;20.32;74.78;99827.75;1737958;80;21040;-32
2021/08/27 09:21:45;;;;;;;22.10;19.75;;;;;;;20.42;75.40;99832.17;1748005;80;21023;-34
2021/08/27 09:24:25;;;;;;;21.20;18.98;;;;;;;20.51;73.88;99826.90;1762125;80;21051;-35
2021/08/27 09:26:56;;;;;;;24.00;20.37;;;;;;;20.58;72.64;99826.52;1730204;81;21079;-33
2021/08/27 09:29:41;;;;;;;22.58;20.12;;;;;;;20.59;71.78;99824.28;1733655;79;21006;-33
2021/08/27 09:32:28;;;;;;;23.62;21.07;;;;;;;20.54;71.99;99827.63;1722464;81;21024;-37
2021/08/27 09:35:09;;;;;;;24.55;22.02;;;;;;;20.55;72.23;99841.30;1759976;80;21041;-39
2021/08/27 09:37:49;;;;;;;21.70;18.87;;;;;;;20.54;72.43;99842.24;1753610;80;21033;-34
2021/08/27 09:40:27;;;;;;;23.20;20.72;;;;;;;20.55;72.57;99844.42;1760705;79;20999;-33
2021/08/27 09:42:55;;;;;;;22.62;20.30;;;;;;;20.53;72.59;99845.84;1741012;80;21141;-38
2021/08/27 09:45:44;;;;;;;20.60;18.48;;;;;;;20.51;72.18;99845.50;1756999;79;21025;-33
2021/08/27 09:48:10;;;;;;;21.48;18.98;;;;;;;20.58;71.24;99838.95;1745056;79;21574;-34
2021/08/27 09:50:39;;;;;;;21.52;18.42;;;;;;;20.74;71.61;99834.61;1761652;79;21059;-33
2021/08/27 09:53:09;;;;;;;19.25;17.23;;;;;;;20.84;71.14;99838.55;1755737;79;20998;-31
2021/08/27 09:55:37;;;;;;;19.10;16.82;;;;;;;20.86;70.19;99830.02;1752609;80;21006;-38
2021/08/27 09:58:06;;;;;;;18.50;15.60;;;;;;;20.88;70.66;99825.98;1744125;79;21084;-38
2021/08/27 10:00:36;;;;;;;19.15;17.10;;;;;;;20.95;71.35;99818.08;1746643;80;21582;-38
2021/08/27 10:03:23;;;;;;;18.77;15.95;;;;;;;21.09;70.08;99825.35;1751553;79;21686;-38
2021/08/27 10:05:52;;;;;;;22.52;16.00;;;;;;;21.18;68.89;99828.89;1748703;80;20993;-38
2021/08/27 10:08:32;;;;;;;21.10;14.80;;;;;;;21.19;66.90;99823.95;1755839;79;21100;-38
2021/08/27 10:11:19;;;;;;;14.55;13.10;;;;;;;21.23;66.71;99834.84;1753386;79;21544;-39
2021/08/27 10:13:46;;;;;;;14.63;13.03;;;;;;;21.25;65.02;99829.81;1761920;79;21501;-39
2021/08/27 10:16:13;;;;;;;15.28;13.30;;;;;;;21.26;63.72;99828.88;1751689;79;20984;-39
2021/08/27 10:18:41;;;;;;;13.15;11.80;;;;;;;21.28;64.18;99834.14;1755440;80;21024;-39
2021/08/27 10:21:08;;;;;;;13.38;11.60;;;;;;;21.32;63.51;99821.55;1745216;79;21898;-39
2021/08/27 10:23:34;;;;;;;11.15;10.05;;;;;;;21.50;64.57;99826.77;1746608;79;21879;-39
2021/08/27 10:26:23;;;;;;;11.73;10.53;;;;;;;21.68;63.54;99822.27;1745455;80;21000;-33
2021/08/27 10:28:50;;;;;;;11.83;10.63;;;;;;;22.00;64.57;99817.03;1757833;79;21073;-32
2021/08/27 10:31:17;;;;;;;11.30;10.10;;;;;;;22.35;62.10;99817.78;1726456;80;21517;-33
2021/08/27 10:33:56;;;;;;;11.45;10.23;;;;;;;22.58;62.42;99821.81;1746128;79;21408;-32
2021/08/27 10:36:31;;;;;;;11.28;10.13;;;;;;;22.65;61.21;99817.84;1709153;81;20977;-34
2021/08/27 10:39:00;;;;;;;11.70;10.50;;;;;;;22.58;60.36;99818.67;1689007;82;21025;-33
2021/08/27 10:41:39;;;;;;;13.10;11.70;;;;;;;22.40;60.45;99821.53;1689591;83;21101;-34
2021/08/27 10:44:11;;;;;;;10.82;9.73;;;;;;;22.43;60.49;99814.20;1681542;83;21096;-33
2021/08/27 10:46:51;;;;;;;14.68;10.38;;;;;;;22.44;59.74;99811.95;1715206;82;21571;-33
2021/08/27 10:49:21;;;;;;;11.30;7.05;;;;;;;22.63;60.87;99820.22;1756543;79;21023;-34
2021/08/27 10:51:50;;;;;;;3.83;3.42;;;;;;;22.62;59.33;99811.37;1740115;81;21063;-33
2021/08/27 10:54:17;;;;;;;3.70;3.40;;;;;;;23.02;54.18;99805.09;1746619;79;21028;-33
2021/08/27 10:56:53;;;;;;;3.77;3.42;;;;;;;23.42;55.03;99803.53;1743737;80;21567;-33
2021/08/27 10:59:22;;;;;;;2.15;1.90;;;;;;;24.07;53.17;99799.11;1754678;80;21068;-33
2021/08/27 11:02:01;;;;;;;2.92;2.33;;;;;;;24.78;50.05;99799.42;1748740;81;21652;-32
2021/08/27 11:04:31;;;;;;;3.00;2.75;;;;;;;25.28;47.89;99790.69;1758245;80;21049;-33
2021/08/27 11:07:04;;;;;;;6.30;4.28;;;;;;;25.76;47.94;99788.73;1742581;80;21186;-33
2021/08/27 11:09:35;;;;;;;3.72;3.12;;;;;;;26.04;48.32;99787.63;1713705;82;21013;-31
2021/08/27 11:12:23;;;;;;;3.37;2.62;;;;;;;26.08;47.54;99790.44;1752200;79;21716;-32
2021/08/27 11:15:02;;;;;;;2.60;2.40;;;;;;;25.87;48.42;99784.81;1748427;79;21025;-36
2021/08/27 11:17:33;;;;;;;2.08;1.90;;;;;;;25.71;47.17;99785.00;1746402;79;21019;-32
2021/08/27 11:20:02;;;;;;;3.15;2.20;;;;;;;25.31;47.89;99790.95;1757575;79;21469;-32
2021/08/27 11:22:31;;;;;;;2.05;1.95;;;;;;;24.82;49.60;99790.24;1715126;81;21136;-38
2021/08/27 11:25:12;;;;;;;2.25;2.05;;;;;;;24.48;49.88;99790.27;1756807;79;21550;-38
2021/08/27 11:27:39;;;;;;;4.10;1.77;;;;;;;24.19;50.11;99790.79;1758107;79;21087;-38
2021/08/27 11:30:30;;;;;;;2.40;2.20;;;;;;;23.83;50.80;99791.69;1752721;79;21046;-32
2021/08/27 11:33:01;;;;;;;2.10;1.90;;;;;;;23.70;50.81;99803.22;1755222;79;21039;-39
2021/08/27 11:35:28;;;;;;;2.15;2.00;;;;;;;23.68;51.52;99793.97;1752122;80;21128;-32
2021/08/27 11:38:04;;;;;;;2.27;2.12;;;;;;;23.74;49.70;99786.91;1752480;79;21064;-32
2021/08/27 11:40:33;;;;;;;2.83;2.40;;;;;;;23.78;50.95;99792.45;1766526;79;21449;-32
2021/08/27 11:43:01;;;;;;;2.50;2.05;;;;;;;23.79;50.09;99796.84;1680190;83;21037;-40
2021/08/27 11:45:27;;;;;;;2.80;2.30;;;;;;;23.69;51.20;99799.69;1753510;79;21022;-33
2021/08/27 11:47:58;;;;;;;2.20;2.00;;;;;;;23.65;52.45;99791.95;1756363;79;21160;-34
2021/08/27 11:50:33;;;;;;;2.30;2.12;;;;;;;23.64;51.59;99792.44;1748973;81;20992;-33
2021/08/27 11:53:05;;;;;;;3.42;2.30;;;;;;;23.60;52.13;99790.90;1753753;79;21123;-40
2021/08/27 11:55:44;;;;;;;2.67;2.00;;;;;;;23.52;49.36;99787.83;1760899;80;21058;-37
2021/08/27 11:58:12;;;;;;;2.20;2.00;;;;;;;23.41;47.88;99790.28;1757215;79;21113;-38
2021/08/27 12:00:44;;;;;;;1.98;1.80;;;;;;;23.39;48.82;99790.87;1751523;79;21046;-37
2021/08/27 12:03:14;;;;;;;2.27;2.08;;;;;;;23.39;49.15;99784.20;1744634;79;21041;-36
2021/08/27 12:05:46;;;;;;;2.35;2.15;;;;;;;23.35;49.18;99790.18;1755302;79;20974;-32
2021/08/27 12:08:13;;;;;;;2.20;2.00;;;;;;;23.37;49.65;99785.63;1755180;79;21071;-38
2021/08/27 12:10:45;;;;;;;2.45;2.00;;;;;;;23.42;49.65;99788.85;1760991;79;21492;-38
2021/08/27 12:13:11;;;;;;;3.55;2.27;;;;;;;23.43;47.39;99779.06;1765334;79;21676;-38
2021/08/27 12:15:43;;;;;;;2.30;2.10;;;;;;;23.45;48.68;99776.67;1757692;79;21352;-38
2021/08/27 12:18:15;;;;;;;2.20;2.00;;;;;;;23.52;47.79;99781.15;1746362;79;21610;-38
2021/08/27 12:20:44;;;;;;;1.90;1.80;;;;;;;23.55;48.21;99784.50;1758573;79;21488;-33
2021/08/27 12:23:19;;;;;;;3.45;2.12;;;;;;;23.65;47.74;99787.47;1755178;79;21588;-32
2021/08/27 12:25:59;;;;;;;3.02;1.87;;;;;;;23.72;46.22;99786.16;1722199;81;20977;-33
2021/08/27 12:28:32;;;;;;;4.75;2.15;;;;;;;23.78;49.01;99796.45;1709297;81;21049;-38
2021/08/27 12:30:59;;;;;;;2.92;1.90;;;;;;;23.74;49.17;99794.92;1750232;79;21000;-39
2021/08/27 12:33:27;;;;;;;2.65;2.45;;;;;;;23.75;49.82;99801.13;1751044;79;21625;-39
2021/08/27 12:35:55;;;;;;;2.30;2.17;;;;;;;23.67;49.53;99800.27;1751823;79;20977;-33
2021/08/27 12:38:22;;;;;;;2.60;2.40;;;;;;;23.65;50.86;99794.63;1764304;79;21065;-38
2021/08/27 12:40:49;;;;;;;2.55;2.30;;;;;;;23.65;50.86;99794.63;1730313;81;21028;-38
2021/08/27 12:43:22;;;;;;;3.77;2.25;;;;;;;23.77;49.03;99801.88;1716036;82;21590;-39
2021/08/27 12:45:52;;;;;;;1.80;1.67;;;;;;;23.77;49.03;99801.88;1714732;83;20985;-33
2021/08/27 12:48:26;;;;;;;2.22;2.05;;;;;;;23.80;48.48;99802.55;1709120;82;21688;-39
2021/08/27 12:51:00;;;;;;;3.17;2.62;;;;;;;23.67;48.55;99800.27;1694952;83;21005;-33
2021/08/27 12:53:35;;;;;;;2.75;2.22;;;;;;;23.58;49.75;99796.79;1708141;82;21036;-37
2021/08/27 12:56:17;;;;;;;4.72;2.17;;;;;;;23.63;49.13;99797.40;1702813;82;21579;-38
2021/08/27 12:58:48;;;;;;;6.37;2.58;;;;;;;23.71;50.39;99795.09;1695031;83;21091;-33
2021/08/27 13:01:22;;;;;;;2.45;2.25;;;;;;;23.72;46.38;99798.66;1700191;83;20966;-38
2021/08/27 13:03:58;;;;;;;2.37;2.17;;;;;;;23.57;48.41;99803.09;1703200;83;21064;-33
2021/08/27 13:06:40;;;;;;;2.70;2.42;;;;;;;23.40;47.72;99801.92;1707045;83;21057;-33
2021/08/27 13:09:20;;;;;;;2.42;2.22;;;;;;;23.22;48.86;99803.41;1743145;80;21048;-32
2021/08/27 13:11:57;;;;;;;7.28;2.12;;;;;;;23.14;47.35;99801.69;1764966;79;21062;-34
2021/08/27 13:14:34;;;;;;;2.77;2.47;;;;;;;23.24;48.31;99804.64;1750919;79;21654;-33
2021/08/27 13:17:10;;;;;;;3.00;2.08;;;;;;;23.52;48.37;99807.36;1720835;82;21038;-33
2021/08/27 13:19:55;;;;;;;2.65;1.80;;;;;;;23.90;47.23;99813.53;1705527;82;21088;-39
2021/08/27 13:22:35;;;;;;;2.80;2.58;;;;;;;24.26;47.02;99809.00;1709524;82;21615;-38
2021/08/27 13:25:11;;;;;;;2.50;2.25;;;;;;;24.62;45.71;99814.28;1718509;81;21554;-34
2021/08/27 13:27:41;;;;;;;6.30;2.08;;;;;;;24.72;45.21;99813.20;1746195;79;21116;-33
2021/08/27 13:30:15;;;;;;;2.42;2.22;;;;;;;24.89;44.08;99809.78;1766440;80;21496;-39
2021/08/27 13:32:51;;;;;;;2.62;2.30;;;;;;;24.94;43.66;99814.83;1757493;80;21098;-39
2021/08/27 13:35:20;;;;;;;3.50;2.65;;;;;;;24.80;42.66;99803.70;1757432;81;21594;-33
2021/08/27 13:37:48;;;;;;;2.50;2.30;;;;;;;24.58;42.46;99799.38;1755973;80;21114;-33
2021/08/27 13:40:17;;;;;;;4.08;2.22;;;;;;;24.40;43.47;99804.97;1724142;81;21540;-36
2021/08/27 13:42:44;;;;;;;5.50;2.58;;;;;;;24.43;43.95;99801.74;1761530;79;21629;-38
2021/08/27 13:45:12;;;;;;;3.17;2.50;;;;;;;24.48;43.81;99802.30;1744191;80;21044;-32
2021/08/27 13:47:39;;;;;;;3.92;2.10;;;;;;;24.37;44.06;99789.63;1744884;80;21909;-32
2021/08/27 13:50:10;;;;;;;4.00;2.33;;;;;;;23.98;45.23;99789.85;1761262;80;22031;-32
2021/08/27 13:52:35;;;;;;;2.60;1.98;;;;;;;23.98;45.23;99789.85;1715541;82;21110;-38
2021/08/27 13:55:02;;;;;;;2.65;2.17;;;;;;;23.78;44.75;99780.92;1719445;83;21102;-39
2021/08/27 13:57:30;;;;;;;2.72;2.33;;;;;;;23.72;44.81;99782.64;1710818;83;21628;-32
2021/08/27 13:59:56;;;;;;;3.58;2.20;;;;;;;23.72;44.81;99782.64;1708534;82;21074;-32
2021/08/27 14:02:23;;;;;;;4.87;2.08;;;;;;;23.83;44.76;99787.69;1688762;83;21124;-37
2021/08/27 14:04:50;;;;;;;3.33;2.85;;;;;;;23.92;44.58;99790.72;1715416;82;21154;-32
2021/08/27 14:07:18;;;;;;;3.50;2.42;;;;;;;23.99;44.47;99780.87;1716797;82;21586;-38
2021/08/27 14:09:45;;;;;;;3.50;2.92;;;;;;;24.11;44.42;99777.42;1712856;83;21098;-33
2021/08/27 14:12:12;;;;;;;2.83;2.45;;;;;;;24.28;44.59;99779.01;1707744;82;21080;-32
2021/08/27 14:14:39;;;;;;;2.92;2.47;;;;;;;24.87;43.48;99787.61;1714499;83;21070;-38
2021/08/27 14:17:05;;;;;;;3.75;2.65;;;;;;;24.87;43.48;99787.61;1712725;82;21090;-32
2021/08/27 14:19:33;;;;;;;2.98;2.65;;;;;;;25.26;42.34;99788.58;1709006;82;21143;-32
2021/08/27 14:21:59;;;;;;;8.73;5.33;;;;;;;25.56;41.14;99800.31;1701505;82;21118;-34
2021/08/27 14:24:26;;;;;;;13.15;4.90;;;;;;;25.79;40.92;99808.11;1704366;82;21063;-33
2021/08/27 14:26:55;;;;;;;4.87;3.30;;;;;;;26.08;40.42;99805.18;1688902;82;21169;-39
2021/08/27 14:29:22;;;;;;;4.20;2.87;;;;;;;26.20;40.21;99805.63;1667559;83;21080;-33
2021/08/27 14:31:48;;;;;;;3.37;2.65;;;;;;;26.14;40.22;99806.08;1775793;79;21711;-38
2021/08/27 14:34:15;;;;;;;8.10;2.62;;;;;;;25.93;40.33;99809.34;1721759;83;21573;-38
2021/08/27 14:36:42;;;;;;;3.25;2.95;;;;;;;25.94;40.00;99798.99;1755576;79;21047;-33
2021/08/27 14:39:09;;;;;;;2.90;2.60;;;;;;;25.96;39.98;99805.09;1757594;81;21016;-34
2021/08/27 14:41:36;;;;;;;3.95;2.67;;;;;;;25.82;40.73;99810.59;1758476;79;21069;-39
2021/08/27 14:44:04;;;;;;;2.85;2.17;;;;;;;25.86;41.54;99811.20;1753327;80;21079;-39
2021/08/27 14:46:31;;;;;;;3.85;2.62;;;;;;;25.85;40.51;99808.16;1758326;79;21571;-33
2021/08/27 14:48:58;;;;;;;5.85;2.75;;;;;;;25.69;39.44;99811.91;1717169;82;21027;-39
2021/08/27 14:51:26;;;;;;;4.60;3.15;;;;;;;25.49;40.16;99803.05;1720808;81;21501;-34
2021/08/27 14:53:52;;;;;;;2.85;2.65;;;;;;;25.38;40.36;99802.45;1748074;80;21008;-39
2021/08/27 14:56:19;;;;;;;3.65;2.55;;;;;;;25.27;40.05;99810.36;1749335;80;21009;-34
2021/08/27 14:58:46;;;;;;;2.98;2.50;;;;;;;25.12;40.71;99809.61;1727834;82;21396;-33
2021/08/27 15:01:12;;;;;;;4.90;2.85;;;;;;;24.97;41.17;99811.94;1754027;79;21130;-33
2021/08/27 15:03:39;;;;;;;3.17;2.83;;;;;;;24.77;41.85;99811.09;1753856;79;21052;-34
2021/08/27 15:06:06;;;;;;;17.70;2.85;;;;;;;24.57;42.50;99815.05;1748147;81;21511;-33
2021/08/27 15:08:34;;;;;;;3.27;2.95;;;;;;;24.34;42.47;99820.07;1743822;81;21044;-33
2021/08/27 15:11:01;;;;;;;2.72;2.27;;;;;;;24.13;42.80;99820.95;1742929;82;21052;-33
2021/08/27 15:13:27;;;;;;;2.98;2.70;;;;;;;24.00;43.27;99816.46;1741101;79;21554;-39
2021/08/27 15:15:57;;;;;;;3.25;2.52;;;;;;;23.97;43.68;99822.02;1731220;82;22281;-33
2021/08/27 15:18:25;;;;;;;6.15;2.70;;;;;;;23.97;43.46;99827.36;1742215;81;21534;-33
2021/08/27 15:20:51;;;;;;;3.55;2.42;;;;;;;23.92;43.81;99816.95;1741836;82;21048;-33
2021/08/27 15:23:18;;;;;;;4.17;2.85;;;;;;;23.89;44.57;99817.16;1752067;81;21705;-33
2021/08/27 15:25:44;;;;;;;4.67;2.70;;;;;;;23.89;45.05;99815.34;1725138;82;21049;-33
2021/08/27 15:28:11;;;;;;;2.50;2.30;;;;;;;23.94;45.26;99806.16;1743073;80;21702;-39
2021/08/27 15:30:38;;;;;;;4.05;2.67;;;;;;;23.92;43.48;99806.75;1760272;79;21010;-39
2021/08/27 15:33:05;;;;;;;4.53;2.72;;;;;;;23.84;43.40;99803.23;1757933;81;21529;-39
2021/08/27 15:35:31;;;;;;;4.30;3.00;;;;;;;23.76;44.05;99808.17;1743216;79;21024;-33
2021/08/27 15:37:57;;;;;;;3.15;2.70;;;;;;;23.71;44.07;99806.26;1753323;79;21123;-33
2021/08/27 15:40:24;;;;;;;3.58;2.87;;;;;;;23.65;43.61;99809.31;1758615;79;21592;-33
2021/08/27 15:42:51;;;;;;;3.83;2.70;;;;;;;23.57;43.76;99799.08;1756167;80;21075;-38
2021/08/27 15:45:18;;;;;;;8.53;2.80;;;;;;;23.53;44.55;99808.22;1757337;81;21035;-39
2021/08/27 15:47:45;;;;;;;4.33;2.83;;;;;;;23.52;44.29;99811.84;1763469;79;21136;-33
2021/08/27 15:50:16;;;;;;;4.83;3.20;;;;;;;23.49;45.56;99813.39;1763401;81;21011;-39
2021/08/27 15:52:43;;;;;;;5.17;3.02;;;;;;;23.44;46.41;99808.32;1759443;79;21036;-39
2021/08/27 15:55:11;;;;;;;4.37;3.10;;;;;;;23.39;46.39;99803.73;1762179;80;21035;-35
2021/08/27 15:57:38;;;;;;;4.62;2.72;;;;;;;23.35;47.08;99799.52;1763347;79;21078;-35
2021/08/27 16:00:07;;;;;;;7.05;2.87;;;;;;;23.26;47.45;99792.95;1761888;80;21440;-38
2021/08/27 16:02:36;;;;;;;7.12;3.58;;;;;;;23.19;47.84;99791.57;1719701;82;21128;-33
2021/08/27 16:05:04;;;;;;;4.47;3.42;;;;;;;23.14;48.69;99807.03;1685515;82;21552;-39
2021/08/27 16:07:31;;;;;;;6.37;2.92;;;;;;;23.06;49.81;99795.94;1681558;84;21066;-38
2021/08/27 16:09:58;;;;;;;8.35;3.20;;;;;;;22.98;49.91;99807.06;1750931;81;21072;-39
2021/08/27 16:12:25;;;;;;;6.75;2.83;;;;;;;22.92;50.05;99806.58;1748103;81;21033;-39
2021/08/27 16:14:52;;;;;;;10.35;3.40;;;;;;;22.85;49.94;99808.71;1752410;81;21052;-38
2021/08/27 16:17:18;;;;;;;5.78;3.22;;;;;;;22.75;50.60;99808.38;1753211;80;21080;-33
